Time;durP1;ratioP1;P1;durP2;ratioP2;P2;SDS_P1;SDS_P2;PMS_P1;PMS_P2;Temp;Humidity;BMP_temperature;BMP_pressure;BME280_temperature;BME280_humidity;BME280_pressure;Samples;Min_cycle;Max_cycle;Signal;HPM_P1;HPM_P2
2022/09/07 00:00:37;;;;;;;2.40;1.08;;;24.90;91.80;;;;;;5055337;22;20049;-24
2022/09/07 00:03:03;;;;;;;2.63;1.10;;;24.80;91.70;;;;;;5032260;28;20026;-24
2022/09/07 00:05:30;;;;;;;1.50;0.93;;;24.90;91.80;;;;;;5032112;28;20028;-24
2022/09/07 00:07:56;;;;;;;3.50;1.08;;;24.80;91.70;;;;;;5032064;28;20309;-24
2022/09/07 00:10:22;;;;;;;2.95;1.00;;;24.80;91.80;;;;;;5031604;28;20065;-24
2022/09/07 00:12:50;;;;;;;1.85;0.93;;;24.80;91.80;;;;;;5032249;28;20155;-24
2022/09/07 00:15:16;;;;;;;1.98;1.00;;;24.80;91.80;;;;;;5032063;28;20075;-24
2022/09/07 00:17:42;;;;;;;2.47;1.40;;;24.80;91.80;;;;;;5031974;28;20379;-24
2022/09/07 00:20:09;;;;;;;1.40;0.90;;;24.80;91.80;;;;;;5031621;28;20075;-24
2022/09/07 00:22:35;;;;;;;2.63;1.00;;;24.80;91.80;;;;;;5032076;28;20030;-24
2022/09/07 00:25:01;;;;;;;2.78;1.05;;;24.80;91.80;;;;;;5032070;28;20029;-24
2022/09/07 00:27:27;;;;;;;2.65;1.00;;;24.80;91.80;;;;;;5032007;28;20053;-24
2022/09/07 00:29:52;;;;;;;2.17;0.90;;;24.80;91.80;;;;;;5032906;28;20025;-24
2022/09/07 00:32:18;;;;;;;0.77;0.73;;;24.80;91.80;;;;;;5035521;28;20520;-24
2022/09/07 00:34:44;;;;;;;3.90;1.10;;;24.80;91.80;;;;;;5034401;28;20111;-24
2022/09/07 00:37:10;;;;;;;2.47;1.10;;;24.80;91.80;;;;;;5014247;28;20029;-24
2022/09/07 00:39:36;;;;;;;3.83;1.05;;;24.80;91.80;;;;;;5031612;28;20033;-24
2022/09/07 00:42:02;;;;;;;1.92;1.10;;;24.80;91.80;;;;;;5031640;28;20029;-24
2022/09/07 00:44:43;;;;;;;1.70;0.85;;;24.80;91.80;;;;;;5031710;28;20022;-24
2022/09/07 00:47:17;;;;;;;1.67;0.98;;;24.70;91.80;;;;;;5031671;28;20029;-24
2022/09/07 00:49:44;;;;;;;;;;;24.70;91.80;;;;;;5014083;28;20030;-24
2022/09/07 00:52:12;;;;;;;1.42;1.00;;;24.80;91.80;;;;;;5031579;28;19909;-24
2022/09/07 00:54:44;;;;;;;2.85;1.02;;;24.70;91.80;;;;;;5016583;28;20029;-24
2022/09/07 00:57:10;;;;;;;1.73;0.88;;;24.70;91.80;;;;;;5035725;28;20021;-24
2022/09/07 00:59:42;;;;;;;1.42;0.93;;;24.70;91.80;;;;;;5035577;28;20482;-24
2022/09/07 01:02:10;;;;;;;2.65;1.10;;;24.70;91.80;;;;;;5035091;28;20484;-24
2022/09/07 01:04:37;;;;;;;1.92;1.00;;;24.70;91.80;;;;;;5035092;28;20096;-24
2022/09/07 01:07:04;;;;;;;1.50;0.90;;;24.70;91.80;;;;;;5035372;28;20076;-24
2022/09/07 01:09:31;;;;;;;0.80;0.70;;;24.70;91.90;;;;;;5035348;28;20384;-24
2022/09/07 01:11:58;;;;;;;2.25;1.00;;;24.70;91.80;;;;;;5035154;28;20021;-24
2022/09/07 01:14:30;;;;;;;2.72;0.90;;;24.70;91.90;;;;;;5035198;28;20022;-24
2022/09/07 01:17:24;;;;;;;3.13;1.10;;;24.70;91.90;;;;;;5035124;28;20502;-24
2022/09/07 01:19:59;;;;;;;5.55;1.10;;;24.70;91.90;;;;;;5035021;28;20100;-24
2022/09/07 01:22:49;;;;;;;1.65;1.10;;;24.70;91.90;;;;;;5035213;28;20021;-24
2022/09/07 01:25:27;;;;;;;2.05;1.13;;;24.70;92.00;;;;;;5034913;28;20362;-24
2022/09/07 01:28:20;;;;;;;2.22;1.00;;;24.70;92.00;;;;;;5017415;28;20025;-24
2022/09/07 01:31:18;;;;;;;1.58;0.90;;;24.70;92.00;;;;;;5017246;28;20079;-24
2022/09/07 01:34:05;;;;;;;3.30;0.80;;;24.60;92.00;;;;;;5034755;28;20026;-24
2022/09/07 01:36:39;;;;;;;2.75;1.10;;;24.70;92.00;;;;;;5034919;28;20372;-24
2022/09/07 01:39:05;;;;;;;2.75;1.00;;;24.60;92.00;;;;;;5034609;28;20025;-24
2022/09/07 01:41:39;;;;;;;1.45;0.90;;;24.60;92.00;;;;;;5034448;28;20037;-24
2022/09/07 01:44:15;;;;;;;2.53;1.20;;;24.60;92.00;;;;;;5034481;28;20021;-24
2022/09/07 01:46:50;;;;;;;3.30;1.10;;;24.60;92.00;;;;;;5034971;28;20083;-24
2022/09/07 01:49:27;;;;;;;2.60;1.10;;;24.60;92.00;;;;;;5016364;28;20544;-24
2022/09/07 01:52:03;;;;;;;3.00;1.10;;;24.70;92.00;;;;;;5034970;28;20449;-24
2022/09/07 01:54:33;;;;;;;1.85;1.25;;;24.60;92.00;;;;;;5035216;28;20040;-24
2022/09/07 01:57:12;;;;;;;1.83;0.88;;;24.60;92.00;;;;;;5034924;28;20032;-24
2022/09/07 01:59:54;;;;;;;2.22;1.15;;;24.60;92.00;;;;;;5034275;28;20486;-24
2022/09/07 02:02:26;;;;;;;3.20;1.13;;;24.60;92.10;;;;;;5035002;28;20109;-24
2022/09/07 02:05:14;;;;;;;2.42;1.08;;;24.60;92.10;;;;;;5015423;28;20079;-24
2022/09/07 02:07:57;;;;;;;2.45;1.20;;;24.60;92.10;;;;;;5034236;28;20048;-24
2022/09/07 02:10:34;;;;;;;1.42;0.95;;;24.60;92.10;;;;;;5033995;28;20033;-24
2022/09/07 02:13:17;;;;;;;2.08;1.00;;;24.60;92.10;;;;;;5034279;28;20029;-24
2022/09/07 02:16:11;;;;;;;1.65;0.90;;;24.60;92.10;;;;;;5034079;28;20037;-24
2022/09/07 02:18:43;;;;;;;2.67;0.90;;;24.60;92.10;;;;;;5033794;28;20025;-24
2022/09/07 02:21:10;;;;;;;2.20;1.13;;;24.60;92.10;;;;;;5034518;28;20036;-24
2022/09/07 02:23:53;;;;;;;4.90;1.20;;;24.60;92.10;;;;;;5033761;28;20474;-24
2022/09/07 02:26:22;;;;;;;1.75;1.00;;;24.60;92.20;;;;;;5033837;28;20064;-24
2022/09/07 02:28:48;;;;;;;1.85;1.00;;;24.60;92.20;;;;;;5033703;28;20025;-24
2022/09/07 02:31:14;;;;;;;3.85;1.33;;;24.60;92.20;;;;;;5033425;28;20025;-24
2022/09/07 02:33:41;;;;;;;3.67;1.20;;;24.60;92.20;;;;;;5033694;28;20022;-24
2022/09/07 02:36:08;;;;;;;2.35;1.08;;;24.50;92.20;;;;;;5033861;28;20209;-24
2022/09/07 02:38:34;;;;;;;1.77;1.08;;;24.50;92.20;;;;;;5033325;28;20036;-24
2022/09/07 02:41:02;;;;;;;3.25;1.00;;;24.50;92.20;;;;;;5033587;28;20033;-24
2022/09/07 02:43:30;;;;;;;2.45;1.05;;;24.50;92.20;;;;;;5033617;28;20096;-24
2022/09/07 02:46:17;;;;;;;2.20;1.02;;;24.50;92.20;;;;;;5033786;28;20124;-24
2022/09/07 02:48:46;;;;;;;2.20;1.08;;;24.50;92.20;;;;;;5033241;28;20029;-24
2022/09/07 02:51:19;;;;;;;4.15;1.20;;;24.50;92.20;;;;;;5033211;28;20026;-24
2022/09/07 02:53:48;;;;;;;2.72;0.98;;;24.50;92.30;;;;;;5033211;28;20478;-24
2022/09/07 02:56:43;;;;;;;2.33;1.00;;;24.50;92.60;;;;;;5033457;28;20524;-25
2022/09/07 02:59:43;;;;;;;3.28;1.10;;;24.50;92.20;;;;;;5033256;28;20029;-24
2022/09/07 03:02:26;;;;;;;2.40;1.38;;;24.50;92.30;;;;;;5015601;28;20033;-24
2022/09/07 03:05:22;;;;;;;2.50;1.00;;;24.50;92.30;;;;;;5033102;28;20029;-24
2022/09/07 03:07:59;;;;;;;2.30;0.88;;;24.50;92.30;;;;;;5024460;28;20372;-24
2022/09/07 03:10:26;;;;;;;1.77;0.85;;;24.50;92.30;;;;;;5032609;28;20072;-24
2022/09/07 03:12:52;;;;;;;3.75;1.10;;;24.50;92.30;;;;;;5032971;28;20029;-24
2022/09/07 03:15:24;;;;;;;2.60;1.10;;;24.50;92.30;;;;;;5033550;28;20025;-24
2022/09/07 03:17:50;;;;;;;3.05;1.15;;;24.50;92.30;;;;;;5032289;28;20375;-24
2022/09/07 03:20:16;;;;;;;2.47;1.10;;;24.50;92.30;;;;;;5032381;28;20560;-24
2022/09/07 03:22:44;;;;;;;1.42;1.00;;;24.50;92.30;;;;;;5032615;28;20103;-24
2022/09/07 03:25:10;;;;;;;2.00;1.10;;;24.50;92.30;;;;;;5032823;28;20112;-24
2022/09/07 03:27:35;;;;;;;1.40;0.85;;;24.50;92.30;;;;;;5032473;28;20029;-24
2022/09/07 03:30:03;;;;;;;1.77;1.05;;;24.50;92.30;;;;;;5032236;28;20028;-24
2022/09/07 03:32:31;;;;;;;1.63;1.10;;;24.40;92.30;;;;;;5032445;28;20474;-24
2022/09/07 03:34:57;;;;;;;2.17;1.02;;;24.50;92.40;;;;;;5032734;28;20052;-24
2022/09/07 03:37:23;;;;;;;2.72;1.00;;;24.50;92.40;;;;;;5032868;28;20028;-24
2022/09/07 03:39:48;;;;;;;2.10;1.20;;;24.40;92.30;;;;;;5032257;28;20029;-24
2022/09/07 03:42:14;;;;;;;2.65;1.30;;;24.50;92.40;;;;;;5032529;28;20367;-24
2022/09/07 03:44:40;;;;;;;1.95;0.77;;;24.50;92.40;;;;;;5032243;28;20470;-24
2022/09/07 03:47:06;;;;;;;1.73;1.10;;;24.50;92.40;;;;;;5032104;28;20013;-24
2022/09/07 03:49:32;;;;;;;2.63;1.13;;;24.50;92.40;;;;;;5032057;28;20083;-24
2022/09/07 03:51:58;;;;;;;4.53;1.60;;;24.40;92.40;;;;;;5031997;28;20022;-24
2022/09/07 03:54:24;;;;;;;3.53;1.77;;;24.40;92.40;;;;;;5032158;28;20033;-24
2022/09/07 03:56:49;;;;;;;2.78;1.60;;;24.40;92.40;;;;;;5032247;28;20037;-24
2022/09/07 03:59:15;;;;;;;2.35;1.40;;;24.40;92.40;;;;;;5034166;28;20120;-24
2022/09/07 04:01:41;;;;;;;3.20;1.75;;;24.40;92.40;;;;;;5036626;28;20036;-24
2022/09/07 04:04:07;;;;;;;3.13;1.63;;;24.40;92.40;;;;;;5033047;28;20466;-24
2022/09/07 04:06:33;;;;;;;3.85;1.33;;;24.40;92.40;;;;;;5032498;28;20378;-24
2022/09/07 04:09:07;;;;;;;5.43;1.58;;;24.40;92.40;;;;;;5032149;28;20017;-24
2022/09/07 04:11:34;;;;;;;5.32;1.60;;;24.40;92.40;;;;;;5032506;28;20025;-24
2022/09/07 04:14:00;;;;;;;2.17;1.20;;;24.30;92.40;;;;;;5031926;28;20072;-24
2022/09/07 04:16:26;;;;;;;3.15;1.42;;;24.40;92.40;;;;;;5032294;28;20026;-24
2022/09/07 04:18:57;;;;;;;3.95;1.63;;;24.40;92.40;;;;;;5032022;28;20060;-24
2022/09/07 04:21:25;;;;;;;6.53;1.48;;;24.40;92.40;;;;;;5031862;28;20483;-24
2022/09/07 04:23:51;;;;;;;4.05;1.50;;;24.30;92.40;;;;;;5031923;28;20538;-24
2022/09/07 04:26:22;;;;;;;4.97;1.50;;;24.30;92.40;;;;;;5031828;28;20025;-24
2022/09/07 04:28:48;;;;;;;3.72;1.33;;;24.30;92.40;;;;;;5033181;28;20022;-24
2022/09/07 04:31:16;;;;;;;5.22;1.52;;;24.30;92.50;;;;;;5036085;28;20474;-24
2022/09/07 04:33:43;;;;;;;2.33;1.27;;;24.30;92.50;;;;;;5035900;28;20026;-24
2022/09/07 04:36:09;;;;;;;2.90;1.42;;;24.30;92.50;;;;;;5036004;28;20037;-24
2022/09/07 04:38:35;;;;;;;2.42;1.42;;;24.30;92.50;;;;;;5017869;28;20052;-24
2022/09/07 04:41:08;;;;;;;2.90;1.30;;;24.30;92.50;;;;;;5035786;28;20022;-24
2022/09/07 04:43:35;;;;;;;3.33;1.20;;;24.30;92.50;;;;;;5017993;28;20025;-24
2022/09/07 04:46:02;;;;;;;3.25;1.60;;;24.20;92.40;;;;;;5035775;28;20433;-24
2022/09/07 04:48:28;;;;;;;3.50;1.40;;;24.30;92.50;;;;;;5035619;28;20438;-24
2022/09/07 04:50:54;;;;;;;2.85;1.05;;;24.30;92.50;;;;;;5035852;28;20026;-24
2022/09/07 04:53:19;;;;;;;2.22;1.48;;;24.30;92.50;;;;;;5036248;28;20463;-24
2022/09/07 04:55:45;;;;;;;3.10;1.23;;;24.20;92.40;;;;;;5035462;28;20042;-24
2022/09/07 04:58:11;;;;;;;4.10;1.52;;;24.30;92.50;;;;;;5035357;28;20036;-24
2022/09/07 05:00:38;;;;;;;2.33;1.33;;;24.30;92.50;;;;;;5037295;28;20483;-24
2022/09/07 05:03:05;;;;;;;4.00;1.52;;;24.20;92.50;;;;;;5036101;28;20123;-24
2022/09/07 05:05:30;;;;;;;2.25;1.33;;;24.20;92.50;;;;;;5035359;28;20021;-24
2022/09/07 05:07:56;;;;;;;2.53;1.20;;;24.20;92.50;;;;;;5035395;28;20101;-24
2022/09/07 05:10:22;;;;;;;2.95;1.30;;;24.20;92.50;;;;;;5034797;28;20038;-24
2022/09/07 05:12:47;;;;;;;2.58;1.30;;;24.20;92.80;;;;;;5035193;28;20030;-24
2022/09/07 05:15:13;;;;;;;4.38;1.27;;;24.20;92.50;;;;;;5035220;28;20040;-24
2022/09/07 05:17:39;;;;;;;2.88;1.58;;;24.20;92.50;;;;;;5035044;28;20045;-24
2022/09/07 05:20:05;;;;;;;2.95;1.25;;;24.20;92.50;;;;;;5034688;28;20434;-24
2022/09/07 05:22:34;;;;;;;3.55;1.20;;;24.20;92.50;;;;;;5034921;28;20048;-24
2022/09/07 05:25:00;;;;;;;2.78;1.15;;;24.20;92.50;;;;;;5034942;28;20132;-24
2022/09/07 05:27:25;;;;;;;3.58;1.48;;;24.20;92.50;;;;;;5034852;28;20474;-24
2022/09/07 05:29:51;;;;;;;3.53;1.58;;;24.20;92.50;;;;;;5034660;28;20474;-25
2022/09/07 05:32:17;;;;;;;2.17;1.17;;;24.20;92.60;;;;;;5034830;28;20025;-24
2022/09/07 05:34:42;;;;;;;4.85;1.30;;;24.10;92.50;;;;;;5034823;28;20037;-24
2022/09/07 05:37:08;;;;;;;3.55;1.30;;;24.20;92.60;;;;;;5035255;28;20101;-25
2022/09/07 05:39:34;;;;;;;4.38;1.27;;;24.20;92.60;;;;;;5034470;28;20021;-24
2022/09/07 05:41:59;;;;;;;2.72;1.45;;;24.20;92.60;;;;;;5034459;28;20387;-25
2022/09/07 05:44:25;;;;;;;3.22;1.30;;;24.10;92.60;;;;;;5034572;28;20018;-24
2022/09/07 05:46:51;;;;;;;1.65;1.20;;;24.10;93.00;;;;;;5034495;28;20033;-24
2022/09/07 05:49:17;;;;;;;2.70;1.33;;;24.10;92.60;;;;;;5034348;28;20072;-24
2022/09/07 05:51:43;;;;;;;2.72;1.13;;;24.10;92.60;;;;;;5034250;28;20029;-24
2022/09/07 05:54:10;;;;;;;2.55;1.33;;;24.10;92.60;;;;;;5034159;28;20037;-24
2022/09/07 05:56:36;;;;;;;2.58;1.30;;;24.10;92.70;;;;;;5034284;28;20097;-24
2022/09/07 05:59:01;;;;;;;2.55;1.42;;;24.10;92.70;;;;;;5034140;28;20447;-24
2022/09/07 06:01:27;;;;;;;5.55;1.50;;;24.10;92.60;;;;;;5077665;22;20037;-25
2022/09/07 06:03:53;;;;;;;2.28;1.10;;;24.10;92.70;;;;;;5054358;28;20017;-26
2022/09/07 06:06:18;;;;;;;2.60;1.20;;;24.20;92.70;;;;;;5054073;28;20462;-26
2022/09/07 06:08:47;;;;;;;3.47;1.20;;;24.10;93.00;;;;;;5035881;28;20025;-26
2022/09/07 06:11:16;;;;;;;2.88;1.52;;;24.10;92.70;;;;;;5053821;28;20021;-26
2022/09/07 06:13:42;;;;;;;2.60;1.08;;;24.10;92.60;;;;;;5053855;28;20025;-26
2022/09/07 06:16:09;;;;;;;2.53;1.23;;;24.10;92.70;;;;;;5053885;28;20036;-26
2022/09/07 06:18:37;;;;;;;2.10;1.10;;;24.10;92.60;;;;;;5053664;28;20036;-26
2022/09/07 06:21:09;;;;;;;3.88;1.27;;;24.10;92.70;;;;;;5053507;28;20044;-26
2022/09/07 06:23:36;;;;;;;1.85;1.30;;;24.10;92.60;;;;;;5053659;28;20104;-26
2022/09/07 06:26:03;;;;;;;4.60;1.30;;;24.20;93.00;;;;;;5053558;28;20027;-26
2022/09/07 06:28:30;;;;;;;1.83;1.08;;;24.10;92.70;;;;;;5053515;28;20096;-26
2022/09/07 06:31:04;;;;;;;2.40;1.25;;;24.10;92.60;;;;;;5053419;28;20052;-26
2022/09/07 06:33:30;;;;;;;3.53;1.13;;;24.20;92.60;;;;;;5053716;28;20033;-26
2022/09/07 06:35:58;;;;;;;3.47;1.30;;;24.10;92.60;;;;;;5053461;28;20485;-26
2022/09/07 06:38:25;;;;;;;1.98;1.10;;;24.10;92.60;;;;;;5035246;28;20036;-26
2022/09/07 06:40:50;;;;;;;5.03;1.38;;;24.10;92.60;;;;;;5053105;28;20025;-26
2022/09/07 06:43:16;;;;;;;2.15;1.33;;;24.10;92.70;;;;;;5053297;28;20032;-26
2022/09/07 06:45:42;;;;;;;9.98;1.90;;;24.10;92.70;;;;;;5053300;28;20016;-26
2022/09/07 06:48:07;;;;;;;7.55;1.75;;;24.00;93.10;;;;;;5053203;28;20375;-26
2022/09/07 06:50:33;;;;;;;4.85;1.55;;;23.80;93.40;;;;;;5052705;28;20390;-26
2022/09/07 06:52:59;;;;;;;6.60;1.77;;;23.70;93.50;;;;;;5052642;28;20031;-26
2022/09/07 06:55:26;;;;;;;6.00;1.77;;;23.80;93.50;;;;;;5053045;28;20025;-26
2022/09/07 06:57:52;;;;;;;6.95;1.60;;;23.80;93.30;;;;;;5053002;28;20390;-26
2022/09/07 07:00:18;;;;;;;7.20;1.77;;;23.90;93.30;;;;;;5052785;28;20090;-26
2022/09/07 07:02:43;;;;;;;7.55;1.70;;;23.90;93.20;;;;;;5052748;28;20486;-26
2022/09/07 07:05:09;;;;;;;6.38;1.85;;;24.00;93.20;;;;;;5052943;28;20021;-26
2022/09/07 07:07:35;;;;;;;4.35;1.50;;;24.00;93.10;;;;;;5052683;28;20021;-26
2022/09/07 07:10:00;;;;;;;6.43;1.80;;;24.00;93.10;;;;;;5053059;28;20024;-26
2022/09/07 07:12:29;;;;;;;8.45;1.80;;;24.00;93.10;;;;;;5052817;28;20059;-26
2022/09/07 07:14:54;;;;;;;9.85;1.70;;;24.10;93.10;;;;;;5052653;28;20036;-26
2022/09/07 07:17:20;;;;;;;5.18;1.60;;;24.00;93.00;;;;;;5052625;28;20398;-26
2022/09/07 07:19:46;;;;;;;10.07;2.08;;;24.10;93.10;;;;;;5052733;28;20059;-26
2022/09/07 07:22:11;;;;;;;11.52;2.00;;;24.00;93.40;;;;;;5052223;28;20405;-26
2022/09/07 07:24:37;;;;;;;9.70;1.90;;;24.00;93.40;;;;;;5034625;28;20461;-26
2022/09/07 07:27:03;;;;;;;8.57;2.00;;;24.10;93.60;;;;;;5052563;28;20470;-26
2022/09/07 07:29:29;;;;;;;9.75;1.77;;;24.10;93.50;;;;;;5052332;28;20470;-26
2022/09/07 07:31:54;;;;;;;8.73;2.13;;;24.10;93.80;;;;;;5052288;28;20055;-26
2022/09/07 07:34:20;;;;;;;8.60;1.92;;;24.10;93.40;;;;;;5052425;28;20163;-26
2022/09/07 07:36:46;;;;;;;7.68;1.80;;;24.10;93.40;;;;;;5052199;28;20033;-26
2022/09/07 07:39:12;;;;;;;6.97;2.15;;;24.20;93.40;;;;;;5052150;28;20104;-26
2022/09/07 07:41:37;;;;;;;7.43;1.65;;;24.10;93.40;;;;;;5052088;28;20483;-26
2022/09/07 07:44:03;;;;;;;3.58;1.50;;;24.20;93.30;;;;;;5052265;28;20363;-26
2022/09/07 07:46:30;;;;;;;6.97;1.75;;;24.20;93.30;;;;;;5052355;28;20531;-26
2022/09/07 07:48:56;;;;;;;5.15;1.75;;;24.20;93.60;;;;;;5052038;28;20066;-26
2022/09/07 07:51:21;;;;;;;4.97;1.85;;;24.20;93.20;;;;;;5051896;28;20025;-26
2022/09/07 07:53:47;;;;;;;5.28;1.60;;;24.30;93.20;;;;;;5052101;28;20029;-26
2022/09/07 07:56:13;;;;;;;7.38;1.80;;;24.30;93.10;;;;;;5052059;28;20079;-26
2022/09/07 07:58:43;;;;;;;5.45;1.70;;;24.30;93.10;;;;;;5051916;28;20025;-26
2022/09/07 08:01:13;;;;;;;7.75;1.80;;;24.30;93.10;;;;;;5051739;28;20029;-26
2022/09/07 08:03:42;;;;;;;3.60;1.63;;;24.40;93.00;;;;;;5052102;28;20112;-26
2022/09/07 08:06:13;;;;;;;7.22;1.73;;;24.40;93.00;;;;;;5051892;28;20048;-26
2022/09/07 08:08:40;;;;;;;4.65;1.85;;;24.40;93.00;;;;;;5051905;28;20104;-26
2022/09/07 08:11:07;;;;;;;5.43;1.55;;;24.40;93.00;;;;;;5051883;28;20029;-26
2022/09/07 08:13:34;;;;;;;3.47;1.40;;;24.40;92.90;;;;;;5051941;28;20028;-26
2022/09/07 08:16:00;;;;;;;6.05;2.00;;;24.40;92.90;;;;;;5052054;28;20039;-26
2022/09/07 08:18:26;;;;;;;6.50;1.60;;;24.50;92.90;;;;;;5052434;28;20033;-26
2022/09/07 08:20:52;;;;;;;5.43;1.55;;;24.40;92.90;;;;;;5052395;28;20029;-26
2022/09/07 08:23:20;;;;;;;5.03;1.58;;;24.50;92.90;;;;;;5052307;28;20068;-26
2022/09/07 08:25:53;;;;;;;7.25;1.52;;;24.50;92.90;;;;;;5052484;28;20045;-26
2022/09/07 08:28:20;;;;;;;5.38;1.40;;;24.50;92.90;;;;;;5052661;28;20017;-26
2022/09/07 08:30:47;;;;;;;4.85;1.45;;;24.50;92.90;;;;;;5052094;28;20052;-26
2022/09/07 08:33:12;;;;;;;3.35;1.50;;;24.50;92.90;;;;;;5051979;28;20025;-26
2022/09/07 08:35:38;;;;;;;3.15;1.33;;;24.50;92.90;;;;;;5051906;28;20079;-26
2022/09/07 08:38:03;;;;;;;2.72;1.25;;;24.50;92.80;;;;;;5051948;28;20036;-26
2022/09/07 08:40:31;;;;;;;3.25;1.35;;;24.50;92.80;;;;;;5051667;28;20091;-26
2022/09/07 08:43:09;;;;;;;5.57;1.35;;;24.60;92.80;;;;;;5051457;28;20056;-26
2022/09/07 08:45:43;;;;;;;9.63;1.90;;;24.70;92.90;;;;;;5051403;28;20478;-26
2022/09/07 08:48:13;;;;;;;;;;;24.70;92.90;;;;;;5051973;28;20025;-26
2022/09/07 08:50:51;;;;;;;6.47;2.08;;;24.80;92.80;;;;;;5051385;28;19905;-26
2022/09/07 08:53:19;;;;;;;9.35;1.83;;;24.90;92.70;;;;;;5033642;28;20544;-26
2022/09/07 08:56:01;;;;;;;9.13;1.73;;;25.00;92.60;;;;;;5051519;28;20416;-26
2022/09/07 08:58:43;;;;;;;6.85;1.88;;;25.10;92.50;;;;;;5051348;28;20496;-26
2022/09/07 09:01:12;;;;;;;6.78;1.85;;;25.20;92.40;;;;;;5051041;28;20029;-26
2022/09/07 09:03:39;;;;;;;5.85;1.67;;;25.20;92.30;;;;;;5051769;28;20029;-26
2022/09/07 09:06:23;;;;;;;7.30;1.63;;;25.30;92.30;;;;;;5051699;28;20056;-26
2022/09/07 09:09:03;;;;;;;5.13;1.52;;;25.30;92.20;;;;;;5051614;28;20432;-26
2022/09/07 09:11:50;;;;;;;4.55;1.50;;;25.40;92.20;;;;;;5051241;28;20474;-26
2022/09/07 09:14:42;;;;;;;5.35;1.40;;;25.40;92.10;;;;;;5051863;28;20029;-26
2022/09/07 09:17:15;;;;;;;4.97;1.45;;;25.40;92.10;;;;;;5054949;28;20082;-26
2022/09/07 09:19:47;;;;;;;5.38;1.60;;;25.40;92.00;;;;;;5054842;28;20029;-26
2022/09/07 09:22:21;;;;;;;4.82;1.67;;;25.50;92.00;;;;;;5054741;28;20032;-26
2022/09/07 09:24:59;;;;;;;4.78;1.88;;;25.50;92.00;;;;;;5054927;28;20029;-26
2022/09/07 09:27:25;;;;;;;4.22;1.50;;;25.50;92.00;;;;;;5054675;28;20086;-26
2022/09/07 09:29:51;;;;;;;2.63;1.20;;;25.50;91.90;;;;;;5054794;28;20029;-26
2022/09/07 09:32:34;;;;;;;3.13;1.20;;;25.60;92.00;;;;;;5036574;28;20552;-26
2022/09/07 09:35:02;;;;;;;3.42;1.30;;;25.60;91.90;;;;;;5054702;28;20083;-26
2022/09/07 09:37:38;;;;;;;4.15;1.52;;;25.60;91.90;;;;;;5054565;28;20040;-26
2022/09/07 09:40:22;;;;;;;5.88;1.48;;;25.70;91.90;;;;;;5054291;28;20382;-26
2022/09/07 09:42:58;;;;;;;5.13;1.15;;;25.70;91.90;;;;;;5054393;28;20018;-26
2022/09/07 09:45:27;;;;;;;2.85;1.30;;;25.60;91.80;;;;;;5054567;28;20074;-26
2022/09/07 09:47:53;;;;;;;2.90;1.13;;;25.70;91.80;;;;;;5054373;28;20028;-26
2022/09/07 09:50:39;;;;;;;4.85;1.40;;;25.70;91.80;;;;;;5054196;28;20029;-26
2022/09/07 09:53:05;;;;;;;4.68;1.33;;;25.70;91.80;;;;;;5054299;28;20051;-26
2022/09/07 09:55:36;;;;;;;4.20;1.20;;;25.70;91.80;;;;;;5054250;28;20371;-26
2022/09/07 09:58:29;;;;;;;4.93;1.27;;;25.70;91.80;;;;;;5054231;28;20072;-26
2022/09/07 10:01:02;;;;;;;3.95;1.17;;;25.70;91.80;;;;;;5053746;28;20079;-26
2022/09/07 10:03:30;;;;;;;3.67;1.17;;;25.70;91.80;;;;;;5054460;28;20082;-26
2022/09/07 10:05:56;;;;;;;5.35;1.20;;;25.70;91.70;;;;;;5054186;28;20075;-26
2022/09/07 10:08:27;;;;;;;4.47;0.95;;;25.70;91.70;;;;;;5053980;28;20059;-26
2022/09/07 10:11:02;;;;;;;4.03;1.05;;;25.80;91.70;;;;;;5053727;28;20040;-26
2022/09/07 10:13:40;;;;;;;4.40;1.27;;;25.80;91.60;;;;;;5053350;28;20119;-26
2022/09/07 10:16:08;;;;;;;4.55;1.20;;;25.90;91.20;;;;;;5053394;28;20036;-26
2022/09/07 10:18:54;;;;;;;5.70;1.30;;;25.80;90.90;;;;;;5053756;28;20033;-26
2022/09/07 10:21:22;;;;;;;3.47;1.40;;;25.90;90.70;;;;;;5053450;28;20025;-26
2022/09/07 10:23:59;;;;;;;5.20;1.65;;;26.00;90.80;;;;;;5053960;28;20021;-26
2022/09/07 10:26:36;;;;;;;4.47;1.13;;;26.00;90.70;;;;;;5053241;28;20490;-26
2022/09/07 10:29:34;;;;;;;2.90;1.10;;;26.10;90.80;;;;;;5054132;28;20063;-26
2022/09/07 10:32:18;;;;;;;5.80;1.20;;;26.10;90.80;;;;;;5053893;28;20048;-26
2022/09/07 10:34:47;;;;;;;;;;;26.10;90.80;;;;;;5054488;28;20017;-26
2022/09/07 10:37:41;;;;;;;4.28;1.20;;;26.10;90.80;;;;;;5054277;28;19905;-26
2022/09/07 10:40:20;;;;;;;5.20;1.23;;;26.10;90.80;;;;;;5053726;28;20083;-27
2022/09/07 10:43:18;;;;;;;4.00;1.02;;;26.10;90.80;;;;;;5053945;28;20025;-27
2022/09/07 10:45:55;;;;;;;3.63;1.02;;;26.20;90.80;;;;;;5053060;28;20103;-27
2022/09/07 10:48:58;;;;;;;3.00;1.10;;;26.10;90.80;;;;;;5053212;28;20017;-26
2022/09/07 10:51:36;;;;;;;7.07;1.58;;;26.20;90.80;;;;;;5053119;28;20029;-26
2022/09/07 10:54:32;;;;;;;7.38;1.20;;;26.10;86.70;;;;;;5053701;28;20086;-26
2022/09/07 10:57:34;;;;;;;5.28;1.20;;;26.00;86.40;;;;;;5053035;28;20029;-26
2022/09/07 11:00:10;;;;;;;5.30;1.08;;;26.00;86.70;;;;;;5053077;28;20025;-26
2022/09/07 11:02:48;;;;;;;2.92;0.90;;;25.90;87.30;;;;;;5052869;28;20039;-26
2022/09/07 11:05:30;;;;;;;3.70;0.98;;;25.90;87.80;;;;;;5052837;28;20028;-26
2022/09/07 11:08:07;;;;;;;5.93;1.35;;;25.90;88.20;;;;;;5053002;28;20390;-26
2022/09/07 11:10:49;;;;;;;5.28;1.23;;;25.90;88.60;;;;;;5052708;28;20103;-26
2022/09/07 11:13:21;;;;;;;3.35;1.20;;;25.80;88.80;;;;;;5052817;28;20025;-26
2022/09/07 11:15:55;;;;;;;2.60;1.05;;;25.80;89.10;;;;;;5052683;28;20051;-26
2022/09/07 11:18:36;;;;;;;3.22;1.00;;;25.70;89.20;;;;;;5052699;28;20037;-26
2022/09/07 11:21:05;;;;;;;4.10;1.30;;;25.70;89.50;;;;;;5052471;28;20029;-26
2022/09/07 11:23:35;;;;;;;7.32;1.20;;;25.70;89.60;;;;;;5052648;28;20039;-26
2022/09/07 11:26:27;;;;;;;3.50;1.13;;;25.70;89.70;;;;;;5052516;28;20025;-26
2022/09/07 11:29:09;;;;;;;3.13;1.10;;;25.70;89.70;;;;;;5052365;28;20056;-26
2022/09/07 11:31:39;;;;;;;3.05;1.00;;;25.70;89.80;;;;;;5052395;28;20056;-26
2022/09/07 11:34:24;;;;;;;4.20;1.05;;;25.70;89.90;;;;;;5052469;28;20029;-26
2022/09/07 11:37:15;;;;;;;2.75;0.95;;;25.80;89.90;;;;;;5052242;28;20075;-26
2022/09/07 11:39:50;;;;;;;5.22;1.20;;;25.80;89.90;;;;;;5052488;28;20056;-26
2022/09/07 11:42:37;;;;;;;2.70;1.00;;;25.80;89.90;;;;;;5052230;28;20023;-26
2022/09/07 11:45:24;;;;;;;2.55;0.88;;;25.80;89.90;;;;;;5052288;28;20025;-26
2022/09/07 11:47:58;;;;;;;4.68;0.95;;;25.80;90.20;;;;;;5052261;28;20020;-26
2022/09/07 11:50:28;;;;;;;2.50;1.00;;;25.90;89.90;;;;;;5052056;28;20063;-26
2022/09/07 11:53:04;;;;;;;3.75;0.93;;;25.90;90.20;;;;;;5052048;28;20024;-26
2022/09/07 11:55:36;;;;;;;1.80;0.80;;;26.00;89.70;;;;;;5052324;28;20052;-26
2022/09/07 11:58:23;;;;;;;2.42;0.90;;;26.00;89.50;;;;;;5052040;28;20031;-26
2022/09/07 12:01:17;;;;;;;2.25;0.93;;;26.00;89.40;;;;;;5051752;28;20044;-26
2022/09/07 12:03:55;;;;;;;3.10;0.95;;;26.10;89.60;;;;;;5059012;22;20091;-23
2022/09/07 12:06:42;;;;;;;2.35;0.90;;;26.10;89.60;;;;;;5032107;28;20494;-24
2022/09/07 12:09:22;;;;;;;2.72;0.80;;;26.10;89.50;;;;;;5031942;28;20075;-24
2022/09/07 12:12:07;;;;;;;4.97;1.10;;;26.10;89.50;;;;;;5031825;28;20382;-23
2022/09/07 12:15:00;;;;;;;1.63;0.95;;;26.10;89.50;;;;;;5032377;28;20075;-23
2022/09/07 12:17:37;;;;;;;5.40;1.00;;;26.20;89.50;;;;;;5032457;28;20228;-23
2022/09/07 12:20:16;;;;;;;5.57;1.10;;;26.20;89.40;;;;;;5031810;28;20068;-23
2022/09/07 12:23:03;;;;;;;2.63;0.70;;;26.20;89.40;;;;;;5031887;28;20024;-23
2022/09/07 12:25:30;;;;;;;3.80;0.90;;;26.20;89.40;;;;;;5032167;28;20542;-24
2022/09/07 12:27:56;;;;;;;2.85;1.20;;;26.20;89.40;;;;;;5032075;28;20104;-23
2022/09/07 12:30:22;;;;;;;3.10;0.70;;;26.20;89.40;;;;;;5031721;28;20044;-24
2022/09/07 12:32:54;;;;;;;2.45;0.82;;;26.20;89.50;;;;;;5031808;28;20463;-23
2022/09/07 12:35:28;;;;;;;2.45;0.82;;;26.10;89.50;;;;;;5031776;28;20541;-24
2022/09/07 12:37:55;;;;;;;;;;;26.10;89.60;;;;;;5032249;28;20057;-24
2022/09/07 12:40:27;;;;;;;2.80;0.90;;;26.10;89.80;;;;;;5031515;28;19960;-23
2022/09/07 12:43:11;;;;;;;1.80;0.90;;;26.00;89.90;;;;;;5031662;28;20018;-24
2022/09/07 12:45:37;;;;;;;2.10;1.00;;;26.00;90.00;;;;;;5031611;28;20485;-24
2022/09/07 12:48:16;;;;;;;2.58;0.98;;;25.90;90.00;;;;;;5031726;28;20032;-24
2022/09/07 12:50:57;;;;;;;1.98;0.70;;;25.90;90.10;;;;;;5034467;28;20029;-24
2022/09/07 12:53:57;;;;;;;1.50;0.80;;;25.90;90.10;;;;;;5035455;28;20021;-24
2022/09/07 12:56:48;;;;;;;1.45;0.80;;;25.90;90.20;;;;;;5035477;28;20030;-24
2022/09/07 12:59:54;;;;;;;2.08;0.77;;;25.80;90.20;;;;;;5035356;28;20021;-24
2022/09/07 13:02:26;;;;;;;3.42;0.80;;;25.80;90.20;;;;;;5035008;28;20025;-23
2022/09/07 13:04:51;;;;;;;1.42;0.80;;;25.80;90.30;;;;;;5035349;28;20540;-23
2022/09/07 13:07:34;;;;;;;1.98;0.93;;;25.80;90.30;;;;;;5035289;28;20037;-23
2022/09/07 13:10:03;;;;;;;1.17;0.80;;;25.70;90.30;;;;;;5035214;28;20025;-23
2022/09/07 13:12:40;;;;;;;1.85;0.60;;;25.80;90.40;;;;;;5035161;28;20025;-23